sensor_id;sensor_type;location;lat;lon;timestamp;pressure;altitude;pressure_sealevel;temperature;humidity
60820;BME280;46641;48.904;9.126;2023-05-08T00:04:10;98820.19;;;21.01;49.21
60820;BME280;46641;48.904;9.126;2023-05-08T00:09:01;98824.72;;;21.01;48.92
60820;BME280;46641;48.904;9.126;2023-05-08T00:13:51;98816.94;;;20.99;49.03
60820;BME280;46641;48.904;9.126;2023-05-08T00:18:41;98825.13;;;20.98;49.31
60820;BME280;46641;48.904;9.126;2023-05-08T00:23:32;98829.63;;;20.97;49.09
60820;BME280;46641;48.904;9.126;2023-05-08T00:28:23;98826.34;;;20.95;49.11
60820;BME280;46641;48.904;9.126;2023-05-08T00:33:13;98825.75;;;20.93;48.92
60820;BME280;46641;48.904;9.126;2023-05-08T00:38:03;98831.91;;;20.94;48.94
60820;BME280;46641;48.904;9.126;2023-05-08T00:42:53;98838.25;;;20.93;48.75
60820;BME280;46641;48.904;9.126;2023-05-08T00:47:44;98832.31;;;20.91;48.85
60820;BME280;46641;48.904;9.126;2023-05-08T00:52:34;98834.16;;;20.90;48.83
60820;BME280;46641;48.904;9.126;2023-05-08T00:57:25;98838.03;;;20.88;48.85
60820;BME280;46641;48.904;9.126;2023-05-08T01:02:15;98840.06;;;20.86;48.99
60820;BME280;46641;48.904;9.126;2023-05-08T01:07:06;98839.47;;;20.84;48.94
60820;BME280;46641;48.904;9.126;2023-05-08T01:12:27;98840.69;;;20.81;48.98
60820;BME280;46641;48.904;9.126;2023-05-08T01:18:02;98835.56;;;20.80;48.86
60820;BME280;46641;48.904;9.126;2023-05-08T01:33:24;98843.56;;;20.73;49.04
60820;BME280;46641;48.904;9.126;2023-05-08T01:38:26;98843.78;;;20.71;49.03
60820;BME280;46641;48.904;9.126;2023-05-08T01:48:24;98866.09;;;20.70;49.05
60820;BME280;46641;48.904;9.126;2023-05-08T01:53:29;98861.97;;;20.68;48.87
60820;BME280;46641;48.904;9.126;2023-05-08T01:58:24;98862.38;;;20.65;49.15
60820;BME280;46641;48.904;9.126;2023-05-08T02:03:16;98864.22;;;20.64;49.12
60820;BME280;46641;48.904;9.126;2023-05-08T02:08:08;98862.78;;;20.62;49.04
60820;BME280;46641;48.904;9.126;2023-05-08T02:13:01;98865.63;;;20.60;49.29
60820;BME280;46641;48.904;9.126;2023-05-08T02:17:53;98859.50;;;20.60;49.42
60820;BME280;46641;48.904;9.126;2023-05-08T02:22:45;98864.22;;;20.58;49.18
60820;BME280;46641;48.904;9.126;2023-05-08T02:27:38;98862.78;;;20.55;49.24
60820;BME280;46641;48.904;9.126;2023-05-08T02:32:30;98866.66;;;20.52;49.18
60820;BME280;46641;48.904;9.126;2023-05-08T02:37:21;98873.63;;;20.53;49.30
60820;BME280;46641;48.904;9.126;2023-05-08T02:42:13;98869.31;;;20.52;49.45
60820;BME280;46641;48.904;9.126;2023-05-08T02:47:14;98874.19;;;20.49;49.17
60820;BME280;46641;48.904;9.126;2023-05-08T02:52:26;98873.56;;;20.47;49.19
60820;BME280;46641;48.904;9.126;2023-05-08T02:57:22;98872.75;;;20.46;49.22
60820;BME280;46641;48.904;9.126;2023-05-08T03:02:30;98873.97;;;20.44;49.32
60820;BME280;46641;48.904;9.126;2023-05-08T03:07:24;98875.81;;;20.43;49.48
60820;BME280;46641;48.904;9.126;2023-05-08T03:12:17;98871.72;;;20.41;49.31
60820;BME280;46641;48.904;9.126;2023-05-08T03:17:13;98863.75;;;20.41;49.42
60820;BME280;46641;48.904;9.126;2023-05-08T03:22:06;98869.28;;;20.39;49.33
60820;BME280;46641;48.904;9.126;2023-05-08T03:26:57;98868.47;;;20.39;49.41
60820;BME280;46641;48.904;9.126;2023-05-08T03:31:50;98864.38;;;20.36;49.41
60820;BME280;46641;48.904;9.126;2023-05-08T03:36:40;98861.28;;;20.33;49.62
60820;BME280;46641;48.904;9.126;2023-05-08T03:41:31;98863.94;;;20.33;49.57
60820;BME280;46641;48.904;9.126;2023-05-08T03:46:22;98858.81;;;20.31;49.69
60820;BME280;46641;48.904;9.126;2023-05-08T03:51:14;98852.09;;;20.28;49.57
60820;BME280;46641;48.904;9.126;2023-05-08T03:56:05;98862.91;;;20.27;49.65
60820;BME280;46641;48.904;9.126;2023-05-08T04:01:11;98867.41;;;20.26;49.43
60820;BME280;46641;48.904;9.126;2023-05-08T04:06:16;98865.78;;;20.25;49.51
60820;BME280;46641;48.904;9.126;2023-05-08T04:11:27;98867.63;;;20.25;49.60
60820;BME280;46641;48.904;9.126;2023-05-08T04:16:25;98868.63;;;20.24;49.49
60820;BME280;46641;48.904;9.126;2023-05-08T04:21:23;98886.63;;;20.22;49.40
60820;BME280;46641;48.904;9.126;2023-05-08T04:26:16;98883.97;;;20.22;49.51
60820;BME280;46641;48.904;9.126;2023-05-08T04:31:07;98888.44;;;20.21;49.70
60820;BME280;46641;48.904;9.126;2023-05-08T04:36:00;98890.50;;;20.19;49.63
60820;BME280;46641;48.904;9.126;2023-05-08T04:40:51;98892.34;;;20.19;49.62
60820;BME280;46641;48.904;9.126;2023-05-08T04:45:41;98897.03;;;20.17;49.57
60820;BME280;46641;48.904;9.126;2023-05-08T04:50:31;98898.06;;;20.16;49.51
60820;BME280;46641;48.904;9.126;2023-05-08T04:55:22;98898.88;;;20.16;49.47
60820;BME280;46641;48.904;9.126;2023-05-08T05:00:12;98912.97;;;20.17;49.68
60820;BME280;46641;48.904;9.126;2023-05-08T05:05:03;98910.72;;;20.14;49.63
60820;BME280;46641;48.904;9.126;2023-05-08T05:09:53;98906.44;;;20.13;49.67
60820;BME280;46641;48.904;9.126;2023-05-08T05:14:44;98909.09;;;20.13;49.61
60820;BME280;46641;48.904;9.126;2023-05-08T05:19:34;98924.97;;;19.99;53.61
60820;BME280;46641;48.904;9.126;2023-05-08T05:24:24;98918.56;;;19.87;54.96
60820;BME280;46641;48.904;9.126;2023-05-08T05:29:14;98927.97;;;19.83;56.67
60820;BME280;46641;48.904;9.126;2023-05-08T05:34:05;98936.09;;;19.47;58.82
60820;BME280;46641;48.904;9.126;2023-05-08T05:38:55;98942.44;;;19.52;58.98
60820;BME280;46641;48.904;9.126;2023-05-08T05:43:45;98940.22;;;19.84;56.67
60820;BME280;46641;48.904;9.126;2023-05-08T05:48:36;98942.75;;;19.99;55.69
60820;BME280;46641;48.904;9.126;2023-05-08T05:53:27;98943.59;;;20.06;55.03
60820;BME280;46641;48.904;9.126;2023-05-08T05:58:17;98947.72;;;20.08;54.69
60820;BME280;46641;48.904;9.126;2023-05-08T06:03:08;98946.06;;;20.07;54.62
60820;BME280;46641;48.904;9.126;2023-05-08T06:07:59;98939.09;;;20.06;54.14
60820;BME280;46641;48.904;9.126;2023-05-08T06:12:50;98945.22;;;20.07;54.09
60820;BME280;46641;48.904;9.126;2023-05-08T06:17:40;98946.25;;;20.06;53.82
60820;BME280;46641;48.904;9.126;2023-05-08T06:22:30;98949.91;;;20.05;53.71
60820;BME280;46641;48.904;9.126;2023-05-08T06:27:21;98948.91;;;20.06;53.74
60820;BME280;46641;48.904;9.126;2023-05-08T06:32:12;98952.56;;;20.05;53.74
60820;BME280;46641;48.904;9.126;2023-05-08T06:37:02;98956.47;;;20.02;53.65
60820;BME280;46641;48.904;9.126;2023-05-08T06:41:52;98963.63;;;20.02;53.54
60820;BME280;46641;48.904;9.126;2023-05-08T06:46:43;98959.13;;;20.02;53.31
60820;BME280;46641;48.904;9.126;2023-05-08T06:51:33;98954.81;;;20.01;53.15
60820;BME280;46641;48.904;9.126;2023-05-08T06:56:24;98961.78;;;20.02;53.34
60820;BME280;46641;48.904;9.126;2023-05-08T07:01:15;98957.28;;;20.03;53.00
60820;BME280;46641;48.904;9.126;2023-05-08T07:06:07;98961.78;;;20.02;53.12
60820;BME280;46641;48.904;9.126;2023-05-08T07:10:58;98961.97;;;20.01;53.09
60820;BME280;46641;48.904;9.126;2023-05-08T07:15:49;98960.13;;;20.01;52.95
60820;BME280;46641;48.904;9.126;2023-05-08T07:20:39;98963.00;;;20.00;52.83
60820;BME280;46641;48.904;9.126;2023-05-08T07:25:29;98970.97;;;20.00;53.07
60820;BME280;46641;48.904;9.126;2023-05-08T07:30:20;98966.69;;;19.99;53.12
60820;BME280;46641;48.904;9.126;2023-05-08T07:35:10;98965.81;;;19.98;53.08
60820;BME280;46641;48.904;9.126;2023-05-08T07:40:01;98975.47;;;19.99;53.14
60820;BME280;46641;48.904;9.126;2023-05-08T07:44:51;98972.59;;;20.01;52.91
60820;BME280;46641;48.904;9.126;2023-05-08T07:49:42;98973.81;;;19.98;53.01
60820;BME280;46641;48.904;9.126;2023-05-08T07:54:32;98972.81;;;19.99;53.14
60820;BME280;46641;48.904;9.126;2023-05-08T07:59:22;98983.22;;;20.01;53.17
60820;BME280;46641;48.904;9.126;2023-05-08T08:04:13;98986.09;;;19.99;52.75
60820;BME280;46641;48.904;9.126;2023-05-08T08:09:06;98982.41;;;20.00;52.78
60820;BME280;46641;48.904;9.126;2023-05-08T08:13:56;98979.75;;;20.00;52.80
60820;BME280;46641;48.904;9.126;2023-05-08T08:18:47;98985.69;;;20.02;52.62
60820;BME280;46641;48.904;9.126;2023-05-08T08:23:37;98982.84;;;20.04;52.83
60820;BME280;46641;48.904;9.126;2023-05-08T08:28:27;98989.34;;;20.01;52.55
60820;BME280;46641;48.904;9.126;2023-05-08T08:33:18;98993.66;;;20.02;52.58
60820;BME280;46641;48.904;9.126;2023-05-08T08:38:08;98995.09;;;20.05;52.62
60820;BME280;46641;48.904;9.126;2023-05-08T08:42:58;98988.16;;;20.04;52.72
60820;BME280;46641;48.904;9.126;2023-05-08T08:47:51;98990.38;;;20.00;53.06
60820;BME280;46641;48.904;9.126;2023-05-08T08:58:20;98992.41;;;19.98;53.02
60820;BME280;46641;48.904;9.126;2023-05-08T09:03:13;98998.97;;;20.02;53.06
60820;BME280;46641;48.904;9.126;2023-05-08T09:08:04;98998.59;;;20.05;52.82
60820;BME280;46641;48.904;9.126;2023-05-08T09:12:56;98994.09;;;20.06;52.90
60820;BME280;46641;48.904;9.126;2023-05-08T09:17:46;99004.34;;;20.09;52.70
60820;BME280;46641;48.904;9.126;2023-05-08T09:22:37;98998.81;;;20.11;52.34
60820;BME280;46641;48.904;9.126;2023-05-08T09:27:29;98998.63;;;20.12;52.62
60820;BME280;46641;48.904;9.126;2023-05-08T09:32:19;98997.59;;;20.13;52.19
60820;BME280;46641;48.904;9.126;2023-05-08T09:37:11;98995.16;;;20.12;52.62
60820;BME280;46641;48.904;9.126;2023-05-08T09:42:03;98997.81;;;20.12;52.46
60820;BME280;46641;48.904;9.126;2023-05-08T09:47:14;98998.63;;;20.12;52.41
60820;BME280;46641;48.904;9.126;2023-05-08T09:52:05;99001.91;;;20.21;52.15
60820;BME280;46641;48.904;9.126;2023-05-08T09:56:56;98998.69;;;20.25;51.88
60820;BME280;46641;48.904;9.126;2023-05-08T10:01:47;99010.72;;;20.21;52.35
60820;BME280;46641;48.904;9.126;2023-05-08T10:06:37;99003.34;;;20.17;55.47
60820;BME280;46641;48.904;9.126;2023-05-08T10:11:28;99005.38;;;20.15;56.91
60820;BME280;46641;48.904;9.126;2023-05-08T10:16:19;99002.66;;;20.08;58.62
60820;BME280;46641;48.904;9.126;2023-05-08T10:21:12;99003.13;;;20.12;59.50
60820;BME280;46641;48.904;9.126;2023-05-08T10:26:11;99005.56;;;20.13;60.49
60820;BME280;46641;48.904;9.126;2023-05-08T10:31:03;99001.53;;;19.82;61.45
60820;BME280;46641;48.904;9.126;2023-05-08T10:35:57;99000.03;;;20.15;59.03
60820;BME280;46641;48.904;9.126;2023-05-08T10:40:47;98994.44;;;20.38;58.16
60820;BME280;46641;48.904;9.126;2023-05-08T10:45:40;99003.69;;;20.48;58.00
60820;BME280;46641;48.904;9.126;2023-05-08T10:50:45;98991.66;;;20.52;57.23
60820;BME280;46641;48.904;9.126;2023-05-08T10:55:40;98994.13;;;20.54;57.58
60820;BME280;46641;48.904;9.126;2023-05-08T11:05:46;98989.22;;;20.58;57.25
60820;BME280;46641;48.904;9.126;2023-05-08T11:10:37;98990.03;;;20.58;57.37
60820;BME280;46641;48.904;9.126;2023-05-08T11:15:39;98994.34;;;20.18;59.93
60820;BME280;46641;48.904;9.126;2023-05-08T11:20:41;98997.59;;;20.13;61.07
60820;BME280;46641;48.904;9.126;2023-05-08T11:25:41;98993.03;;;20.00;62.78
60820;BME280;46641;48.904;9.126;2023-05-08T11:30:36;98986.88;;;19.93;62.75
60820;BME280;46641;48.904;9.126;2023-05-08T11:35:48;98980.97;;;19.98;63.21
60820;BME280;46641;48.904;9.126;2023-05-08T11:45:39;98977.84;;;20.29;61.34
60820;BME280;46641;48.904;9.126;2023-05-08T11:50:34;98976.88;;;20.50;60.45
60820;BME280;46641;48.904;9.126;2023-05-08T11:55:25;98963.88;;;20.62;59.97
60820;BME280;46641;48.904;9.126;2023-05-08T12:00:15;98974.31;;;20.70;59.54
60820;BME280;46641;48.904;9.126;2023-05-08T12:05:07;98964.69;;;20.75;59.15
60820;BME280;46641;48.904;9.126;2023-05-08T12:10:00;98971.88;;;20.82;58.72
60820;BME280;46641;48.904;9.126;2023-05-08T12:14:50;98964.94;;;20.87;58.22
60820;BME280;46641;48.904;9.126;2023-05-08T12:19:41;98977.25;;;20.40;61.40
60820;BME280;46641;48.904;9.126;2023-05-08T12:24:31;98978.16;;;20.06;62.90
60820;BME280;46641;48.904;9.126;2023-05-08T12:29:22;98983.44;;;19.99;63.91
60820;BME280;46641;48.904;9.126;2023-05-08T12:34:12;98978.69;;;19.95;64.67
60820;BME280;46641;48.904;9.126;2023-05-08T12:39:16;98977.72;;;20.02;63.93
60820;BME280;46641;48.904;9.126;2023-05-08T12:44:27;98975.69;;;20.04;63.33
60820;BME280;46641;48.904;9.126;2023-05-08T12:49:26;98964.50;;;20.16;63.13
60820;BME280;46641;48.904;9.126;2023-05-08T12:54:17;98969.38;;;20.05;63.74
60820;BME280;46641;48.904;9.126;2023-05-08T12:59:08;98963.16;;;19.98;64.30
60820;BME280;46641;48.904;9.126;2023-05-08T13:03:58;98968.72;;;20.03;64.26
60820;BME280;46641;48.904;9.126;2023-05-08T13:08:54;98972.91;;;20.26;63.06
60820;BME280;46641;48.904;9.126;2023-05-08T13:13:44;98967.25;;;20.42;62.45
60820;BME280;46641;48.904;9.126;2023-05-08T13:18:34;98969.72;;;20.50;63.58
60820;BME280;46641;48.904;9.126;2023-05-08T13:23:25;98965.44;;;20.49;62.05
60820;BME280;46641;48.904;9.126;2023-05-08T13:28:16;98967.06;;;20.50;62.32
60820;BME280;46641;48.904;9.126;2023-05-08T13:33:06;98953.97;;;20.42;62.98
60820;BME280;46641;48.904;9.126;2023-05-08T13:37:57;98952.88;;;20.30;63.02
60820;BME280;46641;48.904;9.126;2023-05-08T13:42:48;98958.00;;;20.25;63.32
60820;BME280;46641;48.904;9.126;2023-05-08T13:47:38;98957.50;;;20.08;64.54
60820;BME280;46641;48.904;9.126;2023-05-08T13:52:29;98952.63;;;20.12;63.88
60820;BME280;46641;48.904;9.126;2023-05-08T13:57:19;98944.78;;;20.45;61.89
60820;BME280;46641;48.904;9.126;2023-05-08T14:02:09;98942.59;;;20.68;61.23
60820;BME280;46641;48.904;9.126;2023-05-08T14:07:00;98948.16;;;20.80;60.63
60820;BME280;46641;48.904;9.126;2023-05-08T14:11:50;98952.44;;;20.88;60.37
60820;BME280;46641;48.904;9.126;2023-05-08T14:16:40;98935.25;;;20.90;60.10
60820;BME280;46641;48.904;9.126;2023-05-08T14:21:31;98945.50;;;20.93;59.95
60820;BME280;46641;48.904;9.126;2023-05-08T14:26:21;98940.19;;;20.93;59.94
60820;BME280;46641;48.904;9.126;2023-05-08T14:31:12;98933.81;;;20.94;59.72
60820;BME280;46641;48.904;9.126;2023-05-08T14:36:02;98932.78;;;20.89;60.44
60820;BME280;46641;48.904;9.126;2023-05-08T14:40:52;98937.28;;;20.82;60.58
60820;BME280;46641;48.904;9.126;2023-05-08T14:45:45;98938.91;;;20.83;60.29
60820;BME280;46641;48.904;9.126;2023-05-08T14:50:36;98935.25;;;20.84;59.87
60820;BME280;46641;48.904;9.126;2023-05-08T14:55:26;98938.09;;;20.82;59.10
60820;BME280;46641;48.904;9.126;2023-05-08T15:00:17;98940.75;;;20.07;63.25
60820;BME280;46641;48.904;9.126;2023-05-08T15:05:07;98927.16;;;20.50;61.35
60820;BME280;46641;48.904;9.126;2023-05-08T15:09:58;98931.16;;;20.74;60.45
60820;BME280;46641;48.904;9.126;2023-05-08T15:14:48;98930.13;;;20.82;59.78
60820;BME280;46641;48.904;9.126;2023-05-08T15:19:38;98935.66;;;20.87;59.63
60820;BME280;46641;48.904;9.126;2023-05-08T15:24:29;98926.03;;;20.86;59.84
60820;BME280;46641;48.904;9.126;2023-05-08T15:29:19;98928.91;;;20.85;59.99
60820;BME280;46641;48.904;9.126;2023-05-08T15:34:09;98933.59;;;20.83;60.20
60820;BME280;46641;48.904;9.126;2023-05-08T15:39:00;98935.66;;;20.81;60.13
60820;BME280;46641;48.904;9.126;2023-05-08T15:43:50;98931.97;;;20.82;60.06
60820;BME280;46641;48.904;9.126;2023-05-08T15:48:41;98925.63;;;20.83;59.89
60820;BME280;46641;48.904;9.126;2023-05-08T15:53:31;98934.44;;;20.83;59.89
60820;BME280;46641;48.904;9.126;2023-05-08T15:58:23;98928.09;;;20.84;60.16
60820;BME280;46641;48.904;9.126;2023-05-08T16:03:13;98932.78;;;20.75;60.21
60820;BME280;46641;48.904;9.126;2023-05-08T16:08:03;98935.25;;;20.77;60.29
60820;BME280;46641;48.904;9.126;2023-05-08T16:12:54;98932.38;;;20.78;61.07
60820;BME280;46641;48.904;9.126;2023-05-08T16:17:45;98936.47;;;20.81;60.67
60820;BME280;46641;48.904;9.126;2023-05-08T16:22:35;98942.44;;;20.83;60.59
60820;BME280;46641;48.904;9.126;2023-05-08T16:27:27;98944.88;;;20.85;60.96
60820;BME280;46641;48.904;9.126;2023-05-08T16:32:17;98940.59;;;20.84;60.74
60820;BME280;46641;48.904;9.126;2023-05-08T16:37:08;98945.09;;;20.83;60.65
60820;BME280;46641;48.904;9.126;2023-05-08T16:41:58;98951.00;;;20.85;60.83
60820;BME280;46641;48.904;9.126;2023-05-08T16:46:48;98938.50;;;20.86;60.64
60820;BME280;46641;48.904;9.126;2023-05-08T16:51:39;98932.38;;;20.85;60.58
60820;BME280;46641;48.904;9.126;2023-05-08T16:56:29;98932.19;;;20.87;60.70
60820;BME280;46641;48.904;9.126;2023-05-08T17:01:19;98933.00;;;20.87;60.57
60820;BME280;46641;48.904;9.126;2023-05-08T17:06:10;98933.59;;;20.89;60.57
60820;BME280;46641;48.904;9.126;2023-05-08T17:11:00;98935.44;;;20.89;60.57
60820;BME280;46641;48.904;9.126;2023-05-08T17:15:51;98938.94;;;20.89;60.76
60820;BME280;46641;48.904;9.126;2023-05-08T17:20:41;98934.22;;;20.91;60.57
60820;BME280;46641;48.904;9.126;2023-05-08T17:25:31;98935.84;;;20.86;60.36
60820;BME280;46641;48.904;9.126;2023-05-08T17:30:21;98939.31;;;20.80;61.48
60820;BME280;46641;48.904;9.126;2023-05-08T17:35:12;98938.91;;;20.83;61.42
60820;BME280;46641;48.904;9.126;2023-05-08T17:40:02;98943.03;;;20.85;61.40
60820;BME280;46641;48.904;9.126;2023-05-08T17:44:53;98947.13;;;20.88;61.47
60820;BME280;46641;48.904;9.126;2023-05-08T17:49:43;98954.88;;;20.89;61.63
60820;BME280;46641;48.904;9.126;2023-05-08T17:54:33;98950.19;;;20.91;61.07
60820;BME280;46641;48.904;9.126;2023-05-08T17:59:24;98952.84;;;20.91;61.15
60820;BME280;46641;48.904;9.126;2023-05-08T18:04:15;98951.00;;;20.92;60.93
60820;BME280;46641;48.904;9.126;2023-05-08T18:09:05;98951.81;;;20.92;60.94
60820;BME280;46641;48.904;9.126;2023-05-08T18:13:58;98952.84;;;20.91;60.85
60820;BME280;46641;48.904;9.126;2023-05-08T18:18:48;98955.75;;;20.90;60.76
60820;BME280;46641;48.904;9.126;2023-05-08T18:23:39;98962.88;;;20.89;60.59
60820;BME280;46641;48.904;9.126;2023-05-08T18:28:29;98956.56;;;20.90;60.48
60820;BME280;46641;48.904;9.126;2023-05-08T18:33:19;98954.88;;;20.89;60.34
60820;BME280;46641;48.904;9.126;2023-05-08T18:38:09;98951.22;;;20.90;60.20
60820;BME280;46641;48.904;9.126;2023-05-08T18:43:00;98963.91;;;20.88;60.25
60820;BME280;46641;48.904;9.126;2023-05-08T18:47:50;98953.06;;;20.83;60.49
60820;BME280;46641;48.904;9.126;2023-05-08T18:52:43;98958.16;;;20.85;60.39
60820;BME280;46641;48.904;9.126;2023-05-08T18:57:33;98958.38;;;20.83;60.30
60820;BME280;46641;48.904;9.126;2023-05-08T19:02:23;98960.84;;;20.85;59.93
60820;BME280;46641;48.904;9.126;2023-05-08T19:07:16;98963.91;;;20.82;60.03
60820;BME280;46641;48.904;9.126;2023-05-08T19:12:07;98964.13;;;20.80;59.98
60820;BME280;46641;48.904;9.126;2023-05-08T19:16:57;98955.28;;;20.80;59.99
60820;BME280;46641;48.904;9.126;2023-05-08T19:21:47;98956.53;;;20.77;59.80
60820;BME280;46641;48.904;9.126;2023-05-08T19:26:37;98958.34;;;20.76;59.62
60820;BME280;46641;48.904;9.126;2023-05-08T19:31:28;98959.38;;;20.75;59.46
60820;BME280;46641;48.904;9.126;2023-05-08T19:36:18;98960.41;;;20.74;58.99
60820;BME280;46641;48.904;9.126;2023-05-08T19:41:10;98958.97;;;20.72;59.13
60820;BME280;46641;48.904;9.126;2023-05-08T19:46:00;98954.69;;;20.71;59.18
60820;BME280;46641;48.904;9.126;2023-05-08T19:50:50;98957.53;;;20.69;58.94
60820;BME280;46641;48.904;9.126;2023-05-08T19:55:41;98957.94;;;20.66;59.04
60820;BME280;46641;48.904;9.126;2023-05-08T20:00:31;98954.84;;;20.63;58.73
60820;BME280;46641;48.904;9.126;2023-05-08T20:05:21;98959.34;;;20.62;58.86
60820;BME280;46641;48.904;9.126;2023-05-08T20:10:11;98960.78;;;20.58;58.76
60820;BME280;46641;48.904;9.126;2023-05-08T20:15:02;98967.94;;;20.58;58.58
60820;BME280;46641;48.904;9.126;2023-05-08T20:19:52;98962.00;;;20.56;58.60
60820;BME280;46641;48.904;9.126;2023-05-08T20:24:42;98970.19;;;20.54;58.52
60820;BME280;46641;48.904;9.126;2023-05-08T20:29:33;98968.75;;;20.51;58.56
60820;BME280;46641;48.904;9.126;2023-05-08T20:34:23;98972.81;;;20.47;58.45
60820;BME280;46641;48.904;9.126;2023-05-08T20:39:13;98961.72;;;20.44;58.61
60820;BME280;46641;48.904;9.126;2023-05-08T20:44:04;98967.88;;;20.44;58.34
60820;BME280;46641;48.904;9.126;2023-05-08T20:48:54;98958.66;;;20.40;58.54
60820;BME280;46641;48.904;9.126;2023-05-08T20:53:44;98955.78;;;20.35;58.70
60820;BME280;46641;48.904;9.126;2023-05-08T20:58:35;98956.19;;;20.32;58.44
60820;BME280;46641;48.904;9.126;2023-05-08T21:03:25;98947.38;;;20.31;58.51
60820;BME280;46641;48.904;9.126;2023-05-08T21:08:15;98947.97;;;20.27;58.49
60820;BME280;46641;48.904;9.126;2023-05-08T21:13:05;98947.38;;;20.25;58.27
60820;BME280;46641;48.904;9.126;2023-05-08T21:17:56;98944.06;;;20.23;58.42
60820;BME280;46641;48.904;9.126;2023-05-08T21:22:46;98945.28;;;20.20;58.59
60820;BME280;46641;48.904;9.126;2023-05-08T21:27:37;98936.09;;;20.16;58.50
60820;BME280;46641;48.904;9.126;2023-05-08T21:32:27;98939.13;;;20.13;58.55
60820;BME280;46641;48.904;9.126;2023-05-08T21:37:17;98939.34;;;20.12;58.54
60820;BME280;46641;48.904;9.126;2023-05-08T21:42:07;98939.75;;;20.08;58.45
60820;BME280;46641;48.904;9.126;2023-05-08T21:46:58;98942.78;;;20.05;58.35
60820;BME280;46641;48.904;9.126;2023-05-08T21:51:48;98937.06;;;20.02;58.37
60820;BME280;46641;48.904;9.126;2023-05-08T21:56:38;98946.03;;;20.01;58.44
60820;BME280;46641;48.904;9.126;2023-05-08T22:01:28;98949.88;;;19.98;58.26
60820;BME280;46641;48.904;9.126;2023-05-08T22:06:20;98949.28;;;19.96;58.35
60820;BME280;46641;48.904;9.126;2023-05-08T22:11:10;98948.84;;;19.93;58.42
60820;BME280;46641;48.904;9.126;2023-05-08T22:16:01;98944.75;;;19.90;58.30
60820;BME280;46641;48.904;9.126;2023-05-08T22:20:51;98953.53;;;19.91;58.15
60820;BME280;46641;48.904;9.126;2023-05-08T22:25:41;98948.44;;;19.89;58.20
60820;BME280;46641;48.904;9.126;2023-05-08T22:30:32;98936.97;;;19.89;58.26
60820;BME280;46641;48.904;9.126;2023-05-08T22:35:24;98933.72;;;19.87;58.33
60820;BME280;46641;48.904;9.126;2023-05-08T22:40:15;98934.09;;;19.83;58.34
60820;BME280;46641;48.904;9.126;2023-05-08T22:45:06;98927.97;;;19.83;58.05
60820;BME280;46641;48.904;9.126;2023-05-08T22:49:57;98912.41;;;19.80;58.20
60820;BME280;46641;48.904;9.126;2023-05-08T22:54:48;98899.53;;;19.77;58.24
60820;BME280;46641;48.904;9.126;2023-05-08T22:59:38;98900.53;;;19.76;58.10
60820;BME280;46641;48.904;9.126;2023-05-08T23:04:28;98886.66;;;19.74;57.99
60820;BME280;46641;48.904;9.126;2023-05-08T23:09:18;98879.69;;;19.73;58.18
60820;BME280;46641;48.904;9.126;2023-05-08T23:14:09;98862.91;;;19.72;58.09
60820;BME280;46641;48.904;9.126;2023-05-08T23:18:59;98855.56;;;19.68;58.29
60820;BME280;46641;48.904;9.126;2023-05-08T23:23:49;98850.47;;;19.66;57.97
60820;BME280;46641;48.904;9.126;2023-05-08T23:28:40;98854.31;;;19.64;58.35
60820;BME280;46641;48.904;9.126;2023-05-08T23:33:30;98851.81;;;19.62;58.27
60820;BME280;46641;48.904;9.126;2023-05-08T23:38:21;98854.69;;;19.60;58.07
60820;BME280;46641;48.904;9.126;2023-05-08T23:43:11;98856.31;;;19.61;57.98
60820;BME280;46641;48.904;9.126;2023-05-08T23:48:02;98849.13;;;19.55;58.11
60820;BME280;46641;48.904;9.126;2023-05-08T23:52:52;98847.50;;;19.54;58.06
60820;BME280;46641;48.904;9.126;2023-05-08T23:57:42;98855.84;;;19.51;58.26
